sensor_id;sensor_type;location;lat;lon;timestamp;temperature;humidity
80274;DHT22;69576;51.902;-8.462;2023-05-10T00:00:59;15.80;69.50
80274;DHT22;69576;51.902;-8.462;2023-05-10T00:03:25;15.80;69.50
80274;DHT22;69576;51.902;-8.462;2023-05-10T00:05:51;15.80;69.90
80274;DHT22;69576;51.902;-8.462;2023-05-10T00:08:19;15.80;69.90
80274;DHT22;69576;51.902;-8.462;2023-05-10T00:10:47;15.80;69.70
80274;DHT22;69576;51.902;-8.462;2023-05-10T00:13:13;15.80;69.80
80274;DHT22;69576;51.902;-8.462;2023-05-10T00:15:38;15.80;69.90
80274;DHT22;69576;51.902;-8.462;2023-05-10T00:18:04;15.80;69.70
80274;DHT22;69576;51.902;-8.462;2023-05-10T00:20:30;15.80;69.90
80274;DHT22;69576;51.902;-8.462;2023-05-10T00:22:56;15.80;69.60
80274;DHT22;69576;51.902;-8.462;2023-05-10T00:25:24;15.80;69.70
80274;DHT22;69576;51.902;-8.462;2023-05-10T00:27:52;15.70;69.50
80274;DHT22;69576;51.902;-8.462;2023-05-10T00:30:20;15.70;69.60
80274;DHT22;69576;51.902;-8.462;2023-05-10T00:32:46;15.70;69.50
80274;DHT22;69576;51.902;-8.462;2023-05-10T00:35:13;15.70;69.60
80274;DHT22;69576;51.902;-8.462;2023-05-10T00:37:41;15.70;69.60
80274;DHT22;69576;51.902;-8.462;2023-05-10T00:40:10;15.60;69.50
80274;DHT22;69576;51.902;-8.462;2023-05-10T00:42:36;15.70;69.50
80274;DHT22;69576;51.902;-8.462;2023-05-10T00:45:01;15.60;69.30
80274;DHT22;69576;51.902;-8.462;2023-05-10T00:47:27;15.60;69.20
80274;DHT22;69576;51.902;-8.462;2023-05-10T00:49:54;15.60;69.20
80274;DHT22;69576;51.902;-8.462;2023-05-10T00:52:21;15.60;69.30
80274;DHT22;69576;51.902;-8.462;2023-05-10T00:54:52;15.60;69.40
80274;DHT22;69576;51.902;-8.462;2023-05-10T00:57:18;15.60;69.20
80274;DHT22;69576;51.902;-8.462;2023-05-10T00:59:47;15.60;69.10
80274;DHT22;69576;51.902;-8.462;2023-05-10T01:02:13;15.60;69.30
80274;DHT22;69576;51.902;-8.462;2023-05-10T01:04:39;15.60;69.30
80274;DHT22;69576;51.902;-8.462;2023-05-10T01:07:09;15.60;69.30
80274;DHT22;69576;51.902;-8.462;2023-05-10T01:09:40;15.60;69.40
80274;DHT22;69576;51.902;-8.462;2023-05-10T01:12:06;15.60;69.10
80274;DHT22;69576;51.902;-8.462;2023-05-10T01:14:35;15.50;69.30
80274;DHT22;69576;51.902;-8.462;2023-05-10T01:17:01;15.50;69.30
80274;DHT22;69576;51.902;-8.462;2023-05-10T01:19:29;15.50;69.40
80274;DHT22;69576;51.902;-8.462;2023-05-10T01:22:05;15.50;69.40
80274;DHT22;69576;51.902;-8.462;2023-05-10T01:33:05;15.50;69.80
80274;DHT22;69576;51.902;-8.462;2023-05-10T01:35:59;15.50;70.10
80274;DHT22;69576;51.902;-8.462;2023-05-10T01:38:41;15.50;70.10
80274;DHT22;69576;51.902;-8.462;2023-05-10T01:44:31;15.50;70.00
80274;DHT22;69576;51.902;-8.462;2023-05-10T01:47:05;15.50;70.10
80274;DHT22;69576;51.902;-8.462;2023-05-10T01:49:39;15.50;70.00
80274;DHT22;69576;51.902;-8.462;2023-05-10T01:52:11;15.50;70.30
80274;DHT22;69576;51.902;-8.462;2023-05-10T01:54:44;15.50;70.20
80274;DHT22;69576;51.902;-8.462;2023-05-10T01:57:15;15.50;70.50
80274;DHT22;69576;51.902;-8.462;2023-05-10T01:59:46;15.50;70.50
80274;DHT22;69576;51.902;-8.462;2023-05-10T02:02:20;15.50;70.50
80274;DHT22;69576;51.902;-8.462;2023-05-10T02:04:46;15.50;70.70
80274;DHT22;69576;51.902;-8.462;2023-05-10T02:07:16;15.50;70.60
80274;DHT22;69576;51.902;-8.462;2023-05-10T02:09:45;15.50;70.40
80274;DHT22;69576;51.902;-8.462;2023-05-10T02:12:17;15.50;70.30
80274;DHT22;69576;51.902;-8.462;2023-05-10T02:14:46;15.40;70.30
80274;DHT22;69576;51.902;-8.462;2023-05-10T02:17:13;15.40;70.40
80274;DHT22;69576;51.902;-8.462;2023-05-10T02:19:41;15.40;70.30
80274;DHT22;69576;51.902;-8.462;2023-05-10T02:22:09;15.40;70.30
80274;DHT22;69576;51.902;-8.462;2023-05-10T02:24:36;15.40;70.30
80274;DHT22;69576;51.902;-8.462;2023-05-10T02:27:05;15.40;70.40
80274;DHT22;69576;51.902;-8.462;2023-05-10T02:29:35;15.40;70.40
80274;DHT22;69576;51.902;-8.462;2023-05-10T02:32:02;15.40;70.50
80274;DHT22;69576;51.902;-8.462;2023-05-10T02:34:28;15.40;70.70
80274;DHT22;69576;51.902;-8.462;2023-05-10T02:36:55;15.40;70.70
80274;DHT22;69576;51.902;-8.462;2023-05-10T02:39:22;15.40;70.40
80274;DHT22;69576;51.902;-8.462;2023-05-10T02:41:52;15.40;70.50
80274;DHT22;69576;51.902;-8.462;2023-05-10T02:44:19;15.40;70.60
80274;DHT22;69576;51.902;-8.462;2023-05-10T02:46:48;15.40;70.80
80274;DHT22;69576;51.902;-8.462;2023-05-10T02:49:16;15.40;71.00
80274;DHT22;69576;51.902;-8.462;2023-05-10T02:51:47;15.40;71.00
80274;DHT22;69576;51.902;-8.462;2023-05-10T02:54:20;15.40;70.90
80274;DHT22;69576;51.902;-8.462;2023-05-10T02:56:51;15.40;70.80
80274;DHT22;69576;51.902;-8.462;2023-05-10T02:59:19;15.40;71.00
80274;DHT22;69576;51.902;-8.462;2023-05-10T03:01:47;15.30;70.90
80274;DHT22;69576;51.902;-8.462;2023-05-10T03:04:13;15.40;71.00
80274;DHT22;69576;51.902;-8.462;2023-05-10T03:06:39;15.30;71.10
80274;DHT22;69576;51.902;-8.462;2023-05-10T03:09:05;15.30;70.70
80274;DHT22;69576;51.902;-8.462;2023-05-10T03:17:00;15.30;70.50
80274;DHT22;69576;51.902;-8.462;2023-05-10T03:19:43;15.30;70.30
80274;DHT22;69576;51.902;-8.462;2023-05-10T03:22:18;15.30;70.60
80274;DHT22;69576;51.902;-8.462;2023-05-10T03:24:53;15.30;70.50
80274;DHT22;69576;51.902;-8.462;2023-05-10T03:27:22;15.20;70.50
80274;DHT22;69576;51.902;-8.462;2023-05-10T03:29:49;15.20;70.40
80274;DHT22;69576;51.902;-8.462;2023-05-10T03:32:19;15.20;70.30
80274;DHT22;69576;51.902;-8.462;2023-05-10T03:34:44;15.20;70.30
80274;DHT22;69576;51.902;-8.462;2023-05-10T03:37:13;15.20;70.30
80274;DHT22;69576;51.902;-8.462;2023-05-10T03:39:38;15.10;70.30
80274;DHT22;69576;51.902;-8.462;2023-05-10T03:42:04;15.10;70.40
80274;DHT22;69576;51.902;-8.462;2023-05-10T03:44:30;15.10;70.10
80274;DHT22;69576;51.902;-8.462;2023-05-10T03:46:56;15.10;70.40
80274;DHT22;69576;51.902;-8.462;2023-05-10T03:49:22;15.10;70.30
80274;DHT22;69576;51.902;-8.462;2023-05-10T03:51:51;15.10;70.10
80274;DHT22;69576;51.902;-8.462;2023-05-10T03:54:17;15.10;70.20
80274;DHT22;69576;51.902;-8.462;2023-05-10T03:56:45;15.10;70.30
80274;DHT22;69576;51.902;-8.462;2023-05-10T03:59:13;15.10;70.20
80274;DHT22;69576;51.902;-8.462;2023-05-10T04:01:39;15.10;71.10
80274;DHT22;69576;51.902;-8.462;2023-05-10T04:04:05;15.10;70.50
80274;DHT22;69576;51.902;-8.462;2023-05-10T04:06:30;15.10;70.90
80274;DHT22;69576;51.902;-8.462;2023-05-10T04:08:57;15.10;70.70
80274;DHT22;69576;51.902;-8.462;2023-05-10T04:11:25;15.10;70.70
80274;DHT22;69576;51.902;-8.462;2023-05-10T04:13:51;15.10;70.90
80274;DHT22;69576;51.902;-8.462;2023-05-10T04:16:17;15.10;70.70
80274;DHT22;69576;51.902;-8.462;2023-05-10T04:18:45;15.10;71.00
80274;DHT22;69576;51.902;-8.462;2023-05-10T04:21:16;15.10;70.80
80274;DHT22;69576;51.902;-8.462;2023-05-10T04:23:44;15.10;71.20
80274;DHT22;69576;51.902;-8.462;2023-05-10T04:26:10;15.10;71.20
80274;DHT22;69576;51.902;-8.462;2023-05-10T04:28:35;15.20;71.20
80274;DHT22;69576;51.902;-8.462;2023-05-10T04:31:08;15.20;71.00
80274;DHT22;69576;51.902;-8.462;2023-05-10T04:33:36;15.10;71.00
80274;DHT22;69576;51.902;-8.462;2023-05-10T04:36:03;15.10;70.90
80274;DHT22;69576;51.902;-8.462;2023-05-10T04:38:29;15.10;71.30
80274;DHT22;69576;51.902;-8.462;2023-05-10T04:41:07;15.10;71.20
80274;DHT22;69576;51.902;-8.462;2023-05-10T04:43:35;15.10;71.30
80274;DHT22;69576;51.902;-8.462;2023-05-10T04:46:01;15.10;71.30
80274;DHT22;69576;51.902;-8.462;2023-05-10T04:48:35;15.10;71.20
80274;DHT22;69576;51.902;-8.462;2023-05-10T04:51:05;15.00;71.20
80274;DHT22;69576;51.902;-8.462;2023-05-10T04:53:32;15.00;71.10
80274;DHT22;69576;51.902;-8.462;2023-05-10T04:55:58;15.00;71.10
80274;DHT22;69576;51.902;-8.462;2023-05-10T04:58:23;15.00;71.30
80274;DHT22;69576;51.902;-8.462;2023-05-10T05:00:51;15.00;71.30
80274;DHT22;69576;51.902;-8.462;2023-05-10T05:03:20;15.00;71.10
80274;DHT22;69576;51.902;-8.462;2023-05-10T05:05:45;15.00;71.30
80274;DHT22;69576;51.902;-8.462;2023-05-10T05:08:11;15.00;71.20
80274;DHT22;69576;51.902;-8.462;2023-05-10T05:10:38;15.00;70.90
80274;DHT22;69576;51.902;-8.462;2023-05-10T05:13:06;15.00;71.10
80274;DHT22;69576;51.902;-8.462;2023-05-10T05:15:32;15.00;71.00
80274;DHT22;69576;51.902;-8.462;2023-05-10T05:18:00;15.00;71.10
80274;DHT22;69576;51.902;-8.462;2023-05-10T05:20:26;14.90;70.90
80274;DHT22;69576;51.902;-8.462;2023-05-10T05:22:55;14.90;71.20
80274;DHT22;69576;51.902;-8.462;2023-05-10T05:25:22;14.90;71.00
80274;DHT22;69576;51.902;-8.462;2023-05-10T05:27:53;14.90;71.00
80274;DHT22;69576;51.902;-8.462;2023-05-10T05:30:19;14.90;71.30
80274;DHT22;69576;51.902;-8.462;2023-05-10T05:32:45;14.90;71.50
80274;DHT22;69576;51.902;-8.462;2023-05-10T05:35:12;14.90;71.20
80274;DHT22;69576;51.902;-8.462;2023-05-10T05:37:38;14.90;71.00
80274;DHT22;69576;51.902;-8.462;2023-05-10T05:40:05;14.90;70.80
80274;DHT22;69576;51.902;-8.462;2023-05-10T05:42:31;14.90;70.90
80274;DHT22;69576;51.902;-8.462;2023-05-10T05:44:57;14.90;70.60
80274;DHT22;69576;51.902;-8.462;2023-05-10T05:47:25;14.90;70.80
80274;DHT22;69576;51.902;-8.462;2023-05-10T05:49:51;14.90;70.70
80274;DHT22;69576;51.902;-8.462;2023-05-10T05:52:17;14.90;70.40
80274;DHT22;69576;51.902;-8.462;2023-05-10T05:54:43;14.90;70.50
80274;DHT22;69576;51.902;-8.462;2023-05-10T05:57:09;14.90;70.40
80274;DHT22;69576;51.902;-8.462;2023-05-10T05:59:37;14.90;70.50
80274;DHT22;69576;51.902;-8.462;2023-05-10T06:02:09;14.90;70.70
80274;DHT22;69576;51.902;-8.462;2023-05-10T06:04:35;14.90;70.30
80274;DHT22;69576;51.902;-8.462;2023-05-10T06:07:03;14.90;70.50
80274;DHT22;69576;51.902;-8.462;2023-05-10T06:09:29;15.00;70.30
80274;DHT22;69576;51.902;-8.462;2023-05-10T06:11:57;15.00;70.60
80274;DHT22;69576;51.902;-8.462;2023-05-10T06:14:23;15.00;70.50
80274;DHT22;69576;51.902;-8.462;2023-05-10T06:16:48;15.00;70.80
80274;DHT22;69576;51.902;-8.462;2023-05-10T06:19:14;15.00;70.50
80274;DHT22;69576;51.902;-8.462;2023-05-10T06:21:40;15.00;70.30
80274;DHT22;69576;51.902;-8.462;2023-05-10T06:24:06;15.10;70.40
80274;DHT22;69576;51.902;-8.462;2023-05-10T06:26:32;15.20;70.50
80274;DHT22;69576;51.902;-8.462;2023-05-10T06:28:58;15.20;70.10
80274;DHT22;69576;51.902;-8.462;2023-05-10T06:31:26;15.20;70.50
80274;DHT22;69576;51.902;-8.462;2023-05-10T06:33:52;15.30;70.20
80274;DHT22;69576;51.902;-8.462;2023-05-10T06:36:18;15.30;70.30
80274;DHT22;69576;51.902;-8.462;2023-05-10T06:38:46;15.30;69.90
80274;DHT22;69576;51.902;-8.462;2023-05-10T06:41:16;15.40;70.20
80274;DHT22;69576;51.902;-8.462;2023-05-10T06:43:42;15.40;70.50
80274;DHT22;69576;51.902;-8.462;2023-05-10T06:46:08;15.50;70.40
80274;DHT22;69576;51.902;-8.462;2023-05-10T06:48:39;15.50;70.80
80274;DHT22;69576;51.902;-8.462;2023-05-10T06:51:04;15.50;70.00
80274;DHT22;69576;51.902;-8.462;2023-05-10T06:53:30;15.50;69.70
80274;DHT22;69576;51.902;-8.462;2023-05-10T06:56:00;15.60;69.50
80274;DHT22;69576;51.902;-8.462;2023-05-10T06:58:31;15.60;69.50
80274;DHT22;69576;51.902;-8.462;2023-05-10T07:01:04;15.60;69.40
80274;DHT22;69576;51.902;-8.462;2023-05-10T07:03:31;15.60;69.20
80274;DHT22;69576;51.902;-8.462;2023-05-10T07:06:01;15.60;69.70
80274;DHT22;69576;51.902;-8.462;2023-05-10T07:08:29;15.60;69.70
80274;DHT22;69576;51.902;-8.462;2023-05-10T07:11:03;15.60;69.60
80274;DHT22;69576;51.902;-8.462;2023-05-10T07:13:31;15.80;70.00
80274;DHT22;69576;51.902;-8.462;2023-05-10T07:16:00;15.80;69.80
80274;DHT22;69576;51.902;-8.462;2023-05-10T07:18:29;15.80;69.50
80274;DHT22;69576;51.902;-8.462;2023-05-10T07:20:57;15.80;69.40
80274;DHT22;69576;51.902;-8.462;2023-05-10T07:23:26;15.80;69.10
80274;DHT22;69576;51.902;-8.462;2023-05-10T07:25:51;15.80;69.20
80274;DHT22;69576;51.902;-8.462;2023-05-10T07:28:18;15.80;69.00
80274;DHT22;69576;51.902;-8.462;2023-05-10T07:30:44;15.90;69.10
80274;DHT22;69576;51.902;-8.462;2023-05-10T07:33:12;15.90;69.40
80274;DHT22;69576;51.902;-8.462;2023-05-10T07:35:38;15.90;69.70
80274;DHT22;69576;51.902;-8.462;2023-05-10T07:38:07;15.90;69.50
80274;DHT22;69576;51.902;-8.462;2023-05-10T07:40:39;15.90;69.10
80274;DHT22;69576;51.902;-8.462;2023-05-10T07:43:04;15.90;69.00
80274;DHT22;69576;51.902;-8.462;2023-05-10T07:45:30;16.00;69.70
80274;DHT22;69576;51.902;-8.462;2023-05-10T07:48:00;16.00;69.70
80274;DHT22;69576;51.902;-8.462;2023-05-10T07:50:29;16.00;69.60
80274;DHT22;69576;51.902;-8.462;2023-05-10T07:52:54;16.00;69.70
80274;DHT22;69576;51.902;-8.462;2023-05-10T07:55:23;16.00;69.50
80274;DHT22;69576;51.902;-8.462;2023-05-10T07:57:48;16.00;69.50
80274;DHT22;69576;51.902;-8.462;2023-05-10T08:00:18;16.00;69.00
80274;DHT22;69576;51.902;-8.462;2023-05-10T08:02:47;16.00;69.20
80274;DHT22;69576;51.902;-8.462;2023-05-10T08:05:13;16.00;69.30
80274;DHT22;69576;51.902;-8.462;2023-05-10T08:07:39;16.00;69.40
80274;DHT22;69576;51.902;-8.462;2023-05-10T08:10:05;16.00;69.20
80274;DHT22;69576;51.902;-8.462;2023-05-10T08:12:31;16.00;68.90
80274;DHT22;69576;51.902;-8.462;2023-05-10T08:14:59;16.00;69.30
80274;DHT22;69576;51.902;-8.462;2023-05-10T08:17:25;16.00;69.40
80274;DHT22;69576;51.902;-8.462;2023-05-10T08:19:51;16.00;69.30
80274;DHT22;69576;51.902;-8.462;2023-05-10T08:22:17;16.00;69.50
80274;DHT22;69576;51.902;-8.462;2023-05-10T08:24:42;16.00;69.90
80274;DHT22;69576;51.902;-8.462;2023-05-10T08:27:08;16.00;70.10
80274;DHT22;69576;51.902;-8.462;2023-05-10T08:29:34;16.10;69.90
80274;DHT22;69576;51.902;-8.462;2023-05-10T08:32:00;16.10;70.60
80274;DHT22;69576;51.902;-8.462;2023-05-10T08:34:28;16.20;70.40
80274;DHT22;69576;51.902;-8.462;2023-05-10T08:36:53;16.20;70.70
80274;DHT22;69576;51.902;-8.462;2023-05-10T08:39:19;16.30;70.70
80274;DHT22;69576;51.902;-8.462;2023-05-10T08:41:47;16.40;70.80
80274;DHT22;69576;51.902;-8.462;2023-05-10T08:44:13;16.50;70.10
80274;DHT22;69576;51.902;-8.462;2023-05-10T08:46:42;16.60;69.50
80274;DHT22;69576;51.902;-8.462;2023-05-10T08:49:13;16.80;69.00
80274;DHT22;69576;51.902;-8.462;2023-05-10T08:51:44;17.00;68.60
80274;DHT22;69576;51.902;-8.462;2023-05-10T08:54:15;17.10;68.00
80274;DHT22;69576;51.902;-8.462;2023-05-10T08:56:43;17.20;67.80
80274;DHT22;69576;51.902;-8.462;2023-05-10T08:59:11;17.40;67.50
80274;DHT22;69576;51.902;-8.462;2023-05-10T09:01:39;17.60;66.90
80274;DHT22;69576;51.902;-8.462;2023-05-10T09:04:05;17.80;66.70
80274;DHT22;69576;51.902;-8.462;2023-05-10T09:06:31;18.00;66.30
80274;DHT22;69576;51.902;-8.462;2023-05-10T09:08:58;18.30;66.00
80274;DHT22;69576;51.902;-8.462;2023-05-10T09:11:26;18.60;65.30
80274;DHT22;69576;51.902;-8.462;2023-05-10T09:13:55;19.00;64.80
80274;DHT22;69576;51.902;-8.462;2023-05-10T09:16:21;19.10;64.20
80274;DHT22;69576;51.902;-8.462;2023-05-10T09:18:47;19.00;64.10
80274;DHT22;69576;51.902;-8.462;2023-05-10T09:21:17;18.80;64.00
80274;DHT22;69576;51.902;-8.462;2023-05-10T09:23:45;18.60;64.20
80274;DHT22;69576;51.902;-8.462;2023-05-10T09:26:12;18.40;64.40
80274;DHT22;69576;51.902;-8.462;2023-05-10T09:28:55;18.20;64.40
80274;DHT22;69576;51.902;-8.462;2023-05-10T09:31:22;18.10;64.80
80274;DHT22;69576;51.902;-8.462;2023-05-10T09:33:49;18.00;65.00
80274;DHT22;69576;51.902;-8.462;2023-05-10T09:36:18;18.00;65.20
80274;DHT22;69576;51.902;-8.462;2023-05-10T09:38:52;18.00;65.30
80274;DHT22;69576;51.902;-8.462;2023-05-10T09:41:24;18.00;65.10
80274;DHT22;69576;51.902;-8.462;2023-05-10T09:43:55;17.90;65.10
80274;DHT22;69576;51.902;-8.462;2023-05-10T09:46:21;18.00;65.00
80274;DHT22;69576;51.902;-8.462;2023-05-10T09:48:50;18.00;65.00
80274;DHT22;69576;51.902;-8.462;2023-05-10T09:51:22;18.10;64.90
80274;DHT22;69576;51.902;-8.462;2023-05-10T09:54:24;18.20;64.70
80274;DHT22;69576;51.902;-8.462;2023-05-10T09:56:52;18.20;64.40
80274;DHT22;69576;51.902;-8.462;2023-05-10T09:59:18;18.10;64.50
80274;DHT22;69576;51.902;-8.462;2023-05-10T10:01:52;18.10;64.50
80274;DHT22;69576;51.902;-8.462;2023-05-10T10:04:20;18.00;64.60
80274;DHT22;69576;51.902;-8.462;2023-05-10T10:06:58;18.00;64.70
80274;DHT22;69576;51.902;-8.462;2023-05-10T10:09:27;18.00;64.60
80274;DHT22;69576;51.902;-8.462;2023-05-10T10:11:58;18.00;64.70
80274;DHT22;69576;51.902;-8.462;2023-05-10T10:14:26;18.00;64.70
80274;DHT22;69576;51.902;-8.462;2023-05-10T10:16:52;18.20;64.70
80274;DHT22;69576;51.902;-8.462;2023-05-10T10:19:19;18.40;64.50
80274;DHT22;69576;51.902;-8.462;2023-05-10T10:21:47;18.50;64.20
80274;DHT22;69576;51.902;-8.462;2023-05-10T10:24:15;18.50;64.00
80274;DHT22;69576;51.902;-8.462;2023-05-10T10:26:47;18.50;63.90
80274;DHT22;69576;51.902;-8.462;2023-05-10T10:29:24;18.40;64.00
80274;DHT22;69576;51.902;-8.462;2023-05-10T10:32:02;18.30;63.80
80274;DHT22;69576;51.902;-8.462;2023-05-10T10:34:30;18.20;63.80
80274;DHT22;69576;51.902;-8.462;2023-05-10T10:37:04;18.10;63.90
80274;DHT22;69576;51.902;-8.462;2023-05-10T10:39:33;18.00;64.10
80274;DHT22;69576;51.902;-8.462;2023-05-10T10:42:02;17.90;64.10
80274;DHT22;69576;51.902;-8.462;2023-05-10T10:47:06;17.80;64.20
80274;DHT22;69576;51.902;-8.462;2023-05-10T10:52:35;17.80;64.40
80274;DHT22;69576;51.902;-8.462;2023-05-10T10:57:49;17.80;64.50
80274;DHT22;69576;51.902;-8.462;2023-05-10T11:00:24;18.00;64.60
80274;DHT22;69576;51.902;-8.462;2023-05-10T11:03:13;18.10;64.70
80274;DHT22;69576;51.902;-8.462;2023-05-10T11:05:44;18.30;64.30
80274;DHT22;69576;51.902;-8.462;2023-05-10T11:10:39;18.50;63.80
80274;DHT22;69576;51.902;-8.462;2023-05-10T11:13:07;18.40;63.60
80274;DHT22;69576;51.902;-8.462;2023-05-10T11:15:36;18.30;63.60
80274;DHT22;69576;51.902;-8.462;2023-05-10T11:18:23;18.20;63.40
80274;DHT22;69576;51.902;-8.462;2023-05-10T11:20:56;18.10;63.50
80274;DHT22;69576;51.902;-8.462;2023-05-10T11:23:32;18.00;63.60
80274;DHT22;69576;51.902;-8.462;2023-05-10T11:25:59;18.00;63.70
80274;DHT22;69576;51.902;-8.462;2023-05-10T11:28:28;18.00;63.70
80274;DHT22;69576;51.902;-8.462;2023-05-10T11:30:54;17.90;63.60
80274;DHT22;69576;51.902;-8.462;2023-05-10T11:33:23;18.00;63.70
80274;DHT22;69576;51.902;-8.462;2023-05-10T11:35:48;18.00;63.80
80274;DHT22;69576;51.902;-8.462;2023-05-10T11:38:14;18.10;64.00
80274;DHT22;69576;51.902;-8.462;2023-05-10T11:40:40;18.10;63.90
80274;DHT22;69576;51.902;-8.462;2023-05-10T11:43:11;18.20;63.60
80274;DHT22;69576;51.902;-8.462;2023-05-10T11:45:37;18.10;63.70
80274;DHT22;69576;51.902;-8.462;2023-05-10T11:48:03;18.10;63.80
80274;DHT22;69576;51.902;-8.462;2023-05-10T11:50:30;18.10;63.70
80274;DHT22;69576;51.902;-8.462;2023-05-10T11:52:56;18.10;63.90
80274;DHT22;69576;51.902;-8.462;2023-05-10T11:55:22;18.00;63.70
80274;DHT22;69576;51.902;-8.462;2023-05-10T11:57:59;18.00;63.80
80274;DHT22;69576;51.902;-8.462;2023-05-10T12:00:25;17.90;63.40
80274;DHT22;69576;51.902;-8.462;2023-05-10T12:02:56;17.80;63.40
80274;DHT22;69576;51.902;-8.462;2023-05-10T12:05:21;17.80;63.40
80274;DHT22;69576;51.902;-8.462;2023-05-10T12:07:50;17.70;63.50
80274;DHT22;69576;51.902;-8.462;2023-05-10T12:10:25;17.70;63.60
80274;DHT22;69576;51.902;-8.462;2023-05-10T12:12:54;17.60;63.70
80274;DHT22;69576;51.902;-8.462;2023-05-10T12:15:23;17.60;63.70
80274;DHT22;69576;51.902;-8.462;2023-05-10T12:17:50;17.60;63.80
80274;DHT22;69576;51.902;-8.462;2023-05-10T12:20:27;17.60;63.80
80274;DHT22;69576;51.902;-8.462;2023-05-10T12:22:55;17.60;63.90
80274;DHT22;69576;51.902;-8.462;2023-05-10T12:25:22;17.60;63.90
80274;DHT22;69576;51.902;-8.462;2023-05-10T12:27:53;17.60;63.90
80274;DHT22;69576;51.902;-8.462;2023-05-10T12:30:25;17.60;63.90
80274;DHT22;69576;51.902;-8.462;2023-05-10T12:32:54;17.70;63.90
80274;DHT22;69576;51.902;-8.462;2023-05-10T12:35:24;17.80;64.00
80274;DHT22;69576;51.902;-8.462;2023-05-10T12:37:54;17.80;64.00
80274;DHT22;69576;51.902;-8.462;2023-05-10T12:40:22;17.80;64.00
80274;DHT22;69576;51.902;-8.462;2023-05-10T12:42:51;17.80;63.90
80274;DHT22;69576;51.902;-8.462;2023-05-10T12:45:18;17.80;63.40
80274;DHT22;69576;51.902;-8.462;2023-05-10T12:47:46;17.80;62.80
80274;DHT22;69576;51.902;-8.462;2023-05-10T12:50:14;17.80;62.10
80274;DHT22;69576;51.902;-8.462;2023-05-10T12:52:43;17.80;61.90
80274;DHT22;69576;51.902;-8.462;2023-05-10T12:55:08;17.80;61.70
80274;DHT22;69576;51.902;-8.462;2023-05-10T12:57:36;17.80;61.50
80274;DHT22;69576;51.902;-8.462;2023-05-10T13:00:05;17.80;61.20
80274;DHT22;69576;51.902;-8.462;2023-05-10T13:02:31;17.80;60.70
80274;DHT22;69576;51.902;-8.462;2023-05-10T13:04:59;17.80;60.80
80274;DHT22;69576;51.902;-8.462;2023-05-10T13:07:27;17.70;60.80
80274;DHT22;69576;51.902;-8.462;2023-05-10T13:09:52;17.70;60.20
80274;DHT22;69576;51.902;-8.462;2023-05-10T13:12:21;17.60;60.10
80274;DHT22;69576;51.902;-8.462;2023-05-10T13:14:48;17.60;60.00
80274;DHT22;69576;51.902;-8.462;2023-05-10T13:17:14;17.50;60.00
80274;DHT22;69576;51.902;-8.462;2023-05-10T13:19:40;17.50;59.90
80274;DHT22;69576;51.902;-8.462;2023-05-10T13:22:06;17.50;59.80
80274;DHT22;69576;51.902;-8.462;2023-05-10T13:24:32;17.50;59.80
80274;DHT22;69576;51.902;-8.462;2023-05-10T13:26:58;17.50;60.00
80274;DHT22;69576;51.902;-8.462;2023-05-10T13:29:26;17.50;60.00
80274;DHT22;69576;51.902;-8.462;2023-05-10T13:31:54;17.50;59.30
80274;DHT22;69576;51.902;-8.462;2023-05-10T13:34:22;17.60;59.60
80274;DHT22;69576;51.902;-8.462;2023-05-10T13:36:49;17.60;59.50
80274;DHT22;69576;51.902;-8.462;2023-05-10T13:39:15;17.60;59.70
80274;DHT22;69576;51.902;-8.462;2023-05-10T13:41:41;17.60;59.40
80274;DHT22;69576;51.902;-8.462;2023-05-10T13:44:14;17.50;59.30
80274;DHT22;69576;51.902;-8.462;2023-05-10T13:46:41;17.50;59.20
80274;DHT22;69576;51.902;-8.462;2023-05-10T13:49:09;17.50;59.20
80274;DHT22;69576;51.902;-8.462;2023-05-10T13:51:35;17.50;59.10
80274;DHT22;69576;51.902;-8.462;2023-05-10T13:54:02;17.40;59.00
80274;DHT22;69576;51.902;-8.462;2023-05-10T13:56:28;17.40;59.20
80274;DHT22;69576;51.902;-8.462;2023-05-10T13:58:54;17.40;59.60
80274;DHT22;69576;51.902;-8.462;2023-05-10T14:01:22;17.40;59.70
80274;DHT22;69576;51.902;-8.462;2023-05-10T14:03:48;17.40;59.60
80274;DHT22;69576;51.902;-8.462;2023-05-10T14:06:15;17.40;59.50
80274;DHT22;69576;51.902;-8.462;2023-05-10T14:08:41;17.30;59.70
80274;DHT22;69576;51.902;-8.462;2023-05-10T14:11:07;17.30;59.50
80274;DHT22;69576;51.902;-8.462;2023-05-10T14:13:35;17.30;59.60
80274;DHT22;69576;51.902;-8.462;2023-05-10T14:16:04;17.20;59.70
80274;DHT22;69576;51.902;-8.462;2023-05-10T14:18:29;17.20;59.80
80274;DHT22;69576;51.902;-8.462;2023-05-10T14:20:56;17.20;59.80
80274;DHT22;69576;51.902;-8.462;2023-05-10T14:23:24;17.30;59.70
80274;DHT22;69576;51.902;-8.462;2023-05-10T14:25:54;17.30;59.70
80274;DHT22;69576;51.902;-8.462;2023-05-10T14:28:20;17.30;59.60
80274;DHT22;69576;51.902;-8.462;2023-05-10T14:30:50;17.30;59.90
80274;DHT22;69576;51.902;-8.462;2023-05-10T14:33:16;17.40;59.70
80274;DHT22;69576;51.902;-8.462;2023-05-10T14:35:42;17.40;59.80
80274;DHT22;69576;51.902;-8.462;2023-05-10T14:38:13;17.40;59.90
80274;DHT22;69576;51.902;-8.462;2023-05-10T14:40:39;17.40;59.80
80274;DHT22;69576;51.902;-8.462;2023-05-10T14:43:05;17.40;59.80
80274;DHT22;69576;51.902;-8.462;2023-05-10T14:45:33;17.40;59.90
80274;DHT22;69576;51.902;-8.462;2023-05-10T14:48:01;17.40;59.90
80274;DHT22;69576;51.902;-8.462;2023-05-10T14:50:30;17.40;60.30
80274;DHT22;69576;51.902;-8.462;2023-05-10T14:52:58;17.50;60.10
80274;DHT22;69576;51.902;-8.462;2023-05-10T14:55:24;17.50;60.40
80274;DHT22;69576;51.902;-8.462;2023-05-10T14:57:50;17.50;60.50
80274;DHT22;69576;51.902;-8.462;2023-05-10T15:00:23;17.50;60.30
80274;DHT22;69576;51.902;-8.462;2023-05-10T15:02:49;17.50;60.30
80274;DHT22;69576;51.902;-8.462;2023-05-10T15:05:14;17.50;60.20
80274;DHT22;69576;51.902;-8.462;2023-05-10T15:07:40;17.50;59.90
80274;DHT22;69576;51.902;-8.462;2023-05-10T15:10:11;17.50;59.80
80274;DHT22;69576;51.902;-8.462;2023-05-10T15:12:38;17.50;59.10
80274;DHT22;69576;51.902;-8.462;2023-05-10T15:15:04;17.50;59.20
80274;DHT22;69576;51.902;-8.462;2023-05-10T15:17:33;17.50;59.40
80274;DHT22;69576;51.902;-8.462;2023-05-10T15:20:00;17.50;59.60
80274;DHT22;69576;51.902;-8.462;2023-05-10T15:22:27;17.50;59.70
80274;DHT22;69576;51.902;-8.462;2023-05-10T15:24:53;17.50;59.10
80274;DHT22;69576;51.902;-8.462;2023-05-10T15:27:20;17.50;59.00
80274;DHT22;69576;51.902;-8.462;2023-05-10T15:29:48;17.50;58.40
80274;DHT22;69576;51.902;-8.462;2023-05-10T15:32:13;17.40;58.50
80274;DHT22;69576;51.902;-8.462;2023-05-10T15:34:42;17.40;58.50
80274;DHT22;69576;51.902;-8.462;2023-05-10T15:37:08;17.40;58.70
80274;DHT22;69576;51.902;-8.462;2023-05-10T15:39:34;17.40;58.60
80274;DHT22;69576;51.902;-8.462;2023-05-10T15:41:59;17.40;58.70
80274;DHT22;69576;51.902;-8.462;2023-05-10T15:44:26;17.40;58.70
80274;DHT22;69576;51.902;-8.462;2023-05-10T15:46:54;17.40;58.80
80274;DHT22;69576;51.902;-8.462;2023-05-10T15:49:25;17.40;58.80